createdAt,value
2022-10-27T00:01:21.561Z,34.57
2022-10-27T00:06:23.591Z,35.70
2022-10-27T00:11:25.805Z,36.55
2022-10-27T00:16:27.810Z,34.83
2022-10-27T00:21:29.971Z,37.15
2022-10-27T00:26:31.977Z,36.03
2022-10-27T00:31:34.069Z,34.15
2022-10-27T00:36:36.149Z,33.55
2022-10-27T00:41:41.100Z,30.53
2022-10-27T00:46:46.129Z,31.05
2022-10-27T00:51:57.105Z,31.90
2022-10-27T00:56:59.786Z,28.95
2022-10-27T01:02:02.377Z,29.75
2022-10-27T01:07:04.627Z,29.93
2022-10-27T01:12:06.807Z,28.80
2022-10-27T01:17:28.035Z,30.33
2022-10-27T01:22:44.227Z,31.67
2022-10-27T01:27:52.426Z,30.37
2022-10-27T01:33:18.846Z,32.33
2022-10-27T01:38:27.224Z,29.23
2022-10-27T01:43:31.492Z,32.67
2022-10-27T01:48:35.769Z,31.33
2022-10-27T01:53:44.228Z,31.85
2022-10-27T01:59:01.522Z,30.33
2022-10-27T02:04:29.109Z,31.40
2022-10-27T02:09:44.202Z,32.80
2022-10-27T02:14:51.321Z,34.40
2022-10-27T02:19:57.019Z,34.47
2022-10-27T02:24:59.269Z,36.50
2022-10-27T02:30:03.368Z,35.67
2022-10-27T02:35:08.326Z,35.97
2022-10-27T02:40:11.115Z,41.85
2022-10-27T02:45:13.246Z,37.40
2022-10-27T02:50:15.310Z,40.07
2022-10-27T02:55:17.418Z,36.75
2022-10-27T03:00:19.557Z,34.03
2022-10-27T03:05:21.569Z,33.28
2022-10-27T03:10:23.860Z,35.70
2022-10-27T03:15:25.882Z,32.17
2022-10-27T03:20:28.175Z,32.15
2022-10-27T03:25:30.177Z,34.57
2022-10-27T03:30:32.205Z,35.65
2022-10-27T03:35:34.270Z,37.95
2022-10-27T03:40:36.271Z,36.40
2022-10-27T03:45:38.293Z,35.15
2022-10-27T03:50:40.467Z,36.63
2022-10-27T03:55:42.799Z,35.42
2022-10-27T04:00:46.023Z,33.65
2022-10-27T04:05:51.130Z,36.40
2022-10-27T04:10:53.426Z,33.90
2022-10-27T04:15:56.442Z,33.93
2022-10-27T04:21:03.136Z,32.55
2022-10-27T04:26:05.353Z,35.70
2022-10-27T04:31:07.417Z,32.00
2022-10-27T04:36:09.621Z,32.63
2022-10-27T04:41:11.714Z,32.33
2022-10-27T04:46:13.790Z,31.77
2022-10-27T04:51:19.259Z,34.97
2022-10-27T04:56:24.328Z,32.10
2022-10-27T05:01:26.450Z,34.55
2022-10-27T05:06:28.731Z,35.03
2022-10-27T05:11:30.811Z,36.50
2022-10-27T05:16:32.812Z,39.90
2022-10-27T05:21:34.873Z,35.83
2022-10-27T05:26:38.047Z,36.53
2022-10-27T05:31:40.327Z,36.63
2022-10-27T05:36:43.880Z,37.92
2022-10-27T05:41:46.026Z,37.17
2022-10-27T05:46:48.042Z,36.90
2022-10-27T05:51:50.910Z,36.75
2022-10-27T05:56:52.910Z,35.20
2022-10-27T06:01:54.980Z,34.03
2022-10-27T06:06:57.134Z,35.40
2022-10-27T06:11:59.292Z,36.70
2022-10-27T06:17:01.325Z,34.90
2022-10-27T06:22:03.408Z,38.03
2022-10-27T06:27:05.479Z,37.40
2022-10-27T06:32:07.509Z,34.90
2022-10-27T06:37:09.536Z,34.53
2022-10-27T06:42:11.581Z,32.88
2022-10-27T06:47:13.779Z,33.83
2022-10-27T06:52:15.788Z,32.13
2022-10-27T06:57:18.042Z,29.65
2022-10-27T07:02:20.269Z,28.80
2022-10-27T07:07:22.345Z,28.52
2022-10-27T07:12:25.216Z,30.83
2022-10-27T07:17:27.248Z,32.03
2022-10-27T07:22:29.227Z,26.52
2022-10-27T07:27:31.283Z,27.17
2022-10-27T07:32:33.304Z,29.95
2022-10-27T07:37:35.363Z,32.87
2022-10-27T07:42:48.938Z,29.45
2022-10-27T07:47:56.936Z,29.85
2022-10-27T07:53:00.295Z,28.13
2022-10-27T07:58:11.005Z,25.67
2022-10-27T08:03:25.548Z,26.30
2022-10-27T08:08:27.637Z,26.30
2022-10-27T08:13:29.712Z,27.02
2022-10-27T08:18:31.725Z,26.57
2022-10-27T08:23:33.766Z,28.20
2022-10-27T08:28:35.864Z,27.77
2022-10-27T08:33:37.866Z,27.70
2022-10-27T08:38:39.945Z,28.15
2022-10-27T08:43:52.524Z,28.83
2022-10-27T08:48:58.590Z,29.98
2022-10-27T08:54:01.141Z,30.87
2022-10-27T08:59:04.071Z,30.73
2022-10-27T09:04:12.341Z,34.78
2022-10-27T09:09:58.926Z,34.33
2022-10-27T09:15:07.156Z,42.72
2022-10-27T09:20:19.653Z,41.63
2022-10-27T09:25:23.367Z,34.25
2022-10-27T09:35:34.478Z,37.50
2022-10-27T09:40:37.105Z,38.97
2022-10-27T09:45:41.061Z,38.87
2022-10-27T09:51:20.164Z,35.15
2022-10-27T09:56:27.980Z,34.58
2022-10-27T10:01:49.019Z,35.17
2022-10-27T10:06:59.090Z,35.85
2022-10-27T10:12:23.874Z,38.27
2022-10-27T10:17:28.078Z,37.47
2022-10-27T10:22:43.154Z,36.97
2022-10-27T10:27:55.387Z,34.40
2022-10-27T10:32:57.904Z,31.08
2022-10-27T10:38:04.981Z,33.47
2022-10-27T10:43:17.461Z,34.03
2022-10-27T10:48:42.058Z,30.17
2022-10-27T10:53:51.264Z,31.07
2022-10-27T10:58:59.120Z,29.20
2022-10-27T11:04:01.302Z,31.17
2022-10-27T11:09:04.484Z,33.28
2022-10-27T11:14:13.095Z,31.77
2022-10-27T11:19:16.420Z,34.30
2022-10-27T11:24:23.070Z,34.33
2022-10-27T11:29:51.164Z,35.17
2022-10-27T11:35:04.846Z,35.75
2022-10-27T11:40:07.108Z,36.75
2022-10-27T11:45:20.961Z,32.80
2022-10-27T11:50:40.100Z,41.53
2022-10-27T11:55:59.608Z,39.70
2022-10-27T12:01:10.445Z,35.83
2022-10-27T12:06:30.805Z,36.20
2022-10-27T12:17:03.959Z,34.85
2022-10-27T12:22:14.097Z,33.60
2022-10-27T12:27:22.467Z,34.00
2022-10-27T12:32:28.552Z,34.55
2022-10-27T12:37:41.613Z,31.23
2022-10-27T12:42:52.084Z,32.75
2022-10-27T12:48:48.191Z,30.77
2022-10-27T12:54:23.649Z,34.47
2022-10-27T12:59:29.756Z,33.10
2022-10-27T13:04:53.543Z,30.87
2022-10-27T13:10:14.002Z,35.85
2022-10-27T13:15:44.343Z,32.37
2022-10-27T13:20:53.424Z,37.95
2022-10-27T13:26:13.891Z,36.10
2022-10-27T13:31:22.274Z,33.03
2022-10-27T13:36:24.561Z,36.03
2022-10-27T13:42:04.209Z,35.47
2022-10-27T13:47:16.268Z,34.72
2022-10-27T13:52:39.651Z,36.42
2022-10-27T13:58:17.941Z,32.73
2022-10-27T14:03:43.654Z,31.12
2022-10-27T14:08:45.633Z,31.33
2022-10-27T14:13:50.620Z,32.83
2022-10-27T14:19:18.522Z,30.75
2022-10-27T14:24:29.140Z,34.50
2022-10-27T14:29:34.853Z,38.20
2022-10-27T14:34:41.606Z,30.97
2022-10-27T14:39:56.698Z,28.98
2022-10-27T14:45:15.799Z,32.25
2022-10-27T14:50:51.749Z,34.70
2022-10-27T14:56:16.261Z,35.90
2022-10-27T15:01:27.363Z,30.60
2022-10-27T15:06:37.507Z,29.08
2022-10-27T15:11:40.205Z,31.08
2022-10-27T15:16:46.372Z,33.70
2022-10-27T15:21:53.814Z,30.33
2022-10-27T15:26:56.282Z,29.00
2022-10-27T15:31:59.697Z,28.05
2022-10-27T15:37:23.865Z,28.15
2022-10-27T15:42:29.380Z,32.13
2022-10-27T15:47:41.915Z,32.67
2022-10-27T15:52:43.971Z,28.90
2022-10-27T15:57:46.726Z,31.33
2022-10-27T16:02:52.974Z,30.27
2022-10-27T16:07:55.538Z,29.23
2022-10-27T16:12:57.617Z,29.75
2022-10-27T16:18:00.394Z,37.90
2022-10-27T16:23:02.701Z,32.78
2022-10-27T16:28:13.967Z,33.08
2022-10-27T16:33:18.567Z,29.40
2022-10-27T16:38:20.612Z,32.00
2022-10-27T16:43:31.765Z,31.80
2022-10-27T16:48:37.017Z,30.58
2022-10-27T16:53:40.096Z,32.60
2022-10-27T16:58:44.049Z,30.80
2022-10-27T17:03:47.078Z,28.55
2022-10-27T17:08:49.167Z,26.47
2022-10-27T17:13:52.644Z,29.65
2022-10-27T17:18:54.654Z,31.80
2022-10-27T17:23:56.952Z,29.73
2022-10-27T17:28:59.790Z,29.75
2022-10-27T17:34:02.397Z,27.10
2022-10-27T17:39:04.871Z,30.52
2022-10-27T17:44:06.910Z,33.25
2022-10-27T17:49:09.106Z,31.07
2022-10-27T17:54:13.073Z,32.28
2022-10-27T17:59:16.437Z,32.20
2022-10-27T18:04:18.470Z,34.75
2022-10-27T18:09:21.326Z,29.83
2022-10-27T18:14:24.273Z,31.13
2022-10-27T18:19:26.659Z,29.48
2022-10-27T18:24:28.736Z,30.77
2022-10-27T18:29:32.315Z,30.50
2022-10-27T18:34:34.566Z,28.92
2022-10-27T18:39:36.734Z,27.07
2022-10-27T18:44:38.809Z,27.65
2022-10-27T18:49:48.265Z,27.37
2022-10-27T18:54:50.835Z,26.12
2022-10-27T18:59:52.856Z,24.90
2022-10-27T19:04:54.894Z,25.87
2022-10-27T19:09:56.887Z,28.50
2022-10-27T19:14:58.892Z,28.93
2022-10-27T19:20:00.923Z,34.03
2022-10-27T19:25:03.700Z,34.03
2022-10-27T19:30:06.328Z,33.30
2022-10-27T19:35:08.576Z,32.97
2022-10-27T19:40:10.956Z,33.57
2022-10-27T19:45:12.996Z,37.40
2022-10-27T19:50:15.068Z,35.53
2022-10-27T19:55:17.096Z,36.13
2022-10-27T20:00:19.229Z,37.58
2022-10-27T20:05:23.737Z,41.20
2022-10-27T20:10:25.827Z,34.88
2022-10-27T20:15:27.882Z,34.83
2022-10-27T20:20:29.884Z,37.40
2022-10-27T20:25:31.965Z,32.38
2022-10-27T20:30:33.992Z,35.13
2022-10-27T20:35:36.053Z,35.42
2022-10-27T20:40:39.582Z,35.00
2022-10-27T20:45:41.604Z,34.07
2022-10-27T20:50:43.654Z,34.20
2022-10-27T20:55:45.681Z,34.03
2022-10-27T21:00:47.923Z,39.40
2022-10-27T21:05:55.059Z,36.00
2022-10-27T21:10:57.163Z,34.70
2022-10-27T21:16:00.077Z,34.60
2022-10-27T21:21:11.626Z,38.43
2022-10-27T21:26:14.265Z,35.75
2022-10-27T21:31:16.356Z,37.60
2022-10-27T21:36:18.643Z,36.80
2022-10-27T21:41:22.134Z,31.77
2022-10-27T21:46:26.593Z,31.57
2022-10-27T21:51:29.920Z,30.65
2022-10-27T21:56:33.796Z,30.45
2022-10-27T22:01:36.120Z,29.73
2022-10-27T22:06:38.387Z,27.80
2022-10-27T22:11:40.446Z,27.63
2022-10-27T22:16:42.526Z,28.30
2022-10-27T22:21:44.588Z,25.50
2022-10-27T22:26:46.683Z,29.57
2022-10-27T22:31:48.817Z,26.58
2022-10-27T22:36:50.981Z,27.87
2022-10-27T22:41:53.042Z,27.27
2022-10-27T22:46:55.119Z,27.95
2022-10-27T22:51:57.171Z,26.33
2022-10-27T22:56:59.212Z,27.27
2022-10-27T23:02:01.335Z,26.30
2022-10-27T23:07:04.073Z,28.52
2022-10-27T23:12:06.769Z,29.12
2022-10-27T23:17:11.664Z,30.70
2022-10-27T23:22:13.755Z,33.20
2022-10-27T23:27:15.823Z,30.00
2022-10-27T23:32:17.867Z,32.75
2022-10-27T23:37:19.894Z,33.70
2022-10-27T23:42:21.916Z,34.20
2022-10-27T23:47:23.919Z,36.25
2022-10-27T23:52:26.127Z,38.43
2022-10-27T23:57:28.195Z,41.40
